KHOU/HOU METAR and TAF weather

Enter ICAO airport designator
Station Type Date Time Source
KHOU METAR 2018/12/11 17:53 UTC NOAA

KHOU 111753Z 00000KT 10SM SCT250 16/04 A3039 RMK AO2 SLP296 T01560039 10156 20028 58015


Station Type Date Time Source
KHOU Decoded METAR 2018/12/11 17:53 UTC NOAA

HOUSTON HOBBY AIRPORT, TX, United States (KHOU) 29-38N 095-17W 36M
Dec 11, 2018 - 12:53 PM EST / 2018.12.11 1753 UTC
Wind: Calm:0
Visibility: 10 mile(s):0
Sky conditions: partly cloudy
Temperature: 60.1 F (15.6 C)
Dew Point: 39.0 F (3.9 C)
Relative Humidity: 45%
Pressure (altimeter): 30.39 in. Hg (1029 hPa)
Pressure tendency: 0.04 inches (1.5 hPa) lower than three hours ago
ob: KHOU 111753Z 00000KT 10SM SCT250 16/04 A3039 RMK AO2 SLP296 T01560039 10156 20028 58015
cycle: 18

Station Type Date Time Source
KHOU TAF 2018/12/11 18:22 UTC NOAA

TAF KHOU 111720Z 1118/1218 15009KT P6SM SCT250
FM120000 16006KT P6SM BKN250
FM120900 16004KT P6SM SCT040 BKN250
FM121500 16008KT P6SM BKN035 BKN250


Example: see airport list